Archiv-/Tagesdaten

--Timestamp---	Temp	Chill	HIndex	Humid	Dewpt	 Wind 	HiWind	WindDir	Rain 	Barom	Solar	 ET  	 UV 
--------------	----	-----	------	-----	-----	------	------	-------	-----	-----	-----	-----	----
20100110 00:00	-4.7	-4.7	-4.7	91	-6.0	2	5	22	0.0	610.7	0	0.000	0.0
20100110 00:05	-4.7	-4.7	-4.7	91	-5.9	3	6	338	0.0	610.7	0	0.000	0.0
20100110 00:10	-4.7	-4.7	-4.7	91	-6.0	3	5	338	0.0	610.7	0	0.000	0.0
20100110 00:15	-4.7	-4.7	-4.7	91	-6.0	0	3	338	0.0	610.7	0	0.000	0.0
20100110 00:20	-4.7	-4.7	-4.7	91	-6.0	2	5	338	0.0	610.7	0	0.000	0.0
20100110 00:25	-4.7	-4.7	-4.7	91	-6.0	2	3	338	0.0	610.7	0	0.000	0.0
20100110 00:30	-4.7	-4.7	-4.7	91	-6.0	3	5	338	0.0	1005.9	0	0.000	0.0
20100110 00:35	-4.8	-4.8	-4.8	90	-6.2	2	5	338	0.0	1005.9	0	0.000	0.0
20100110 00:40	-4.8	-4.8	-4.8	90	-6.2	3	5	338	0.0	1005.9	0	0.000	0.0
20100110 00:45	-4.8	-4.8	-4.8	90	-6.2	0	3	338	0.0	1005.9	0	0.000	0.0
20100110 00:50	-4.8	-4.8	-4.8	91	-6.0	2	3	338	0.0	1005.9	0	0.000	0.0
20100110 00:55	-4.7	-4.7	-4.7	91	-6.0	0	2	338	0.0	1005.9	0	0.000	0.0
20100110 01:00	-4.7	-4.7	-4.7	91	-5.9	2	3	338	0.0	1005.9	0	0.000	0.0
20100110 01:05	-4.7	-4.7	-4.7	91	-5.9	2	5	338	0.0	1005.9	0	0.000	0.0
20100110 01:10	-4.6	-4.6	-4.6	91	-5.9	0	3	338	0.0	1005.9	0	0.000	0.0
20100110 01:15	-4.6	-4.6	-4.6	91	-5.9	3	6	338	0.0	1006.2	0	0.000	0.0
20100110 01:20	-4.6	-4.6	-4.6	91	-5.9	2	5	338	0.0	1006.3	0	0.000	0.0
20100110 01:25	-4.6	-4.6	-4.6	91	-5.9	2	6	338	0.0	1006.3	0	0.000	0.0
20100110 01:30	-4.6	-4.6	-4.6	91	-5.9	3	5	338	0.0	1006.3	0	0.000	0.0
20100110 01:35	-4.7	-4.7	-4.7	91	-5.9	3	5	338	0.0	1006.3	0	0.000	0.0
20100110 01:40	-4.7	-4.7	-4.7	91	-5.9	3	5	338	0.0	1006.3	0	0.000	0.0
20100110 01:45	-4.7	-4.7	-4.7	91	-5.9	3	5	338	0.0	1006.6	0	0.000	0.0
20100110 01:50	-4.7	-4.7	-4.7	91	-5.9	2	3	338	0.0	1006.6	0	0.000	0.0
20100110 01:55	-4.7	-4.7	-4.7	91	-5.9	2	3	338	0.0	1006.6	0	0.000	0.0
20100110 02:00	-4.6	-4.6	-4.6	91	-5.9	0	3	338	0.0	1006.7	0	0.000	0.0
20100110 02:05	-4.6	-4.6	-4.6	91	-5.9	2	3	338	0.0	1006.8	0	0.000	0.0
20100110 02:10	-4.7	-4.7	-4.7	91	-5.9	3	5	338	0.0	1006.8	0	0.000	0.0
20100110 02:15	-4.7	-4.7	-4.7	91	-5.9	3	5	338	0.0	587.9	0	0.000	0.0
20100110 02:20	-4.7	-4.7	-4.7	91	-5.9	2	3	338	0.0	1007.0	0	0.000	0.0
20100110 02:25	-4.7	-4.7	-4.7	91	-6.0	0	2	338	0.0	1007.1	0	0.000	0.0
20100110 02:30	-4.7	-4.7	-4.7	91	-5.9	0	2	338	0.0	1007.1	0	0.000	0.0
20100110 02:35	-4.7	-4.7	-4.7	91	-5.9	0	0	-100000	0.0	1007.1	0	0.000	0.0
20100110 02:40	-4.7	-4.7	-4.7	91	-5.9	0	2	338	0.0	1007.2	0	0.000	0.0
20100110 02:45	-4.6	-4.6	-4.6	91	-5.9	0	3	338	0.0	1007.2	0	0.000	0.0
20100110 02:50	-4.7	-4.7	-4.7	91	-5.9	2	5	338	0.0	1007.1	0	0.000	0.0
20100110 02:55	-4.7	-4.7	-4.7	91	-6.0	0	3	338	0.0	1007.1	0	0.000	0.0
20100110 03:00	-4.7	-4.7	-4.7	91	-6.0	3	5	338	0.0	1007.1	0	0.000	0.0
20100110 03:05	-4.8	-4.8	-4.8	91	-6.0	3	5	338	0.0	1007.1	0	0.000	0.0
20100110 03:10	-4.8	-4.8	-4.8	91	-6.0	3	5	315	0.0	779.9	0	0.000	0.0
20100110 03:15	-4.8	-4.8	-4.8	91	-6.0	3	6	315	0.0	779.9	0	0.000	0.0
20100110 03:20	-4.8	-4.8	-4.8	91	-6.1	3	6	270	0.0	1007.4	0	0.000	0.0
20100110 03:25	-4.8	-4.8	-4.8	91	-6.1	3	5	270	0.0	1007.4	0	0.000	0.0
20100110 03:30	-4.9	-4.9	-4.9	91	-6.1	3	6	270	0.0	1007.3	0	0.000	0.0
20100110 03:35	-4.9	-4.9	-4.9	91	-6.1	3	6	270	0.0	1007.4	0	0.000	0.0
20100110 03:40	-4.9	-4.9	-4.9	91	-6.2	3	6	270	0.0	1007.4	0	0.000	0.0
20100110 03:45	-4.9	-4.9	-4.9	91	-6.2	3	5	270	0.0	1007.4	0	0.000	0.0
20100110 03:50	-4.9	-4.9	-4.9	91	-6.2	3	5	270	0.0	1007.5	0	0.000	0.0
20100110 03:55	-4.9	-4.9	-4.9	91	-6.2	2	5	270	0.0	1007.5	0	0.000	0.0
20100110 04:00	-4.9	-4.9	-4.9	91	-6.2	3	6	270	0.0	1007.5	0	0.000	0.0
20100110 04:05	-4.9	-4.9	-4.9	91	-6.2	3	5	270	0.0	1007.5	0	0.000	0.0
20100110 04:10	-4.9	-4.9	-4.9	91	-6.2	3	5	270	0.0	1007.6	0	0.000	0.0
20100110 04:15	-4.9	-4.9	-4.9	91	-6.2	3	6	270	0.0	1007.6	0	0.000	0.0
20100110 04:20	-4.9	-4.9	-4.9	91	-6.2	5	6	270	0.0	1007.7	0	0.000	0.0
20100110 04:25	-5.0	-5.0	-5.0	91	-6.2	3	6	270	0.0	1007.7	0	0.000	0.0
20100110 04:30	-4.9	-4.9	-4.9	91	-6.2	3	6	270	0.0	1007.7	0	0.000	0.0
20100110 04:35	-5.0	-5.0	-5.0	91	-6.2	3	5	270	0.0	1007.7	0	0.000	0.0
20100110 04:40	-4.9	-4.9	-4.9	91	-6.2	3	5	270	0.0	1007.7	0	0.000	0.0
20100110 04:45	-4.9	-4.9	-4.9	91	-6.2	3	6	270	0.0	1007.8	0	0.000	0.0
20100110 04:50	-4.9	-4.9	-4.9	91	-6.2	2	5	270	0.0	1007.8	0	0.000	0.0
20100110 04:55	-4.9	-4.9	-4.9	90	-6.3	2	5	270	0.0	1007.9	0	0.000	0.0
20100110 05:00	-4.9	-4.9	-4.9	90	-6.3	2	5	270	0.0	1007.8	0	0.000	0.0
20100110 05:05	-4.9	-4.9	-4.9	90	-6.3	3	5	270	0.0	1007.9	0	0.000	0.0
20100110 05:10	-4.9	-4.9	-4.9	90	-6.3	2	3	270	0.0	1007.9	0	0.000	0.0
20100110 05:15	-4.9	-4.9	-4.9	90	-6.3	2	3	270	0.0	1007.9	0	0.000	0.0
20100110 05:20	-4.8	-4.8	-4.8	91	-6.1	2	5	270	0.0	1008.0	0	0.000	0.0
20100110 05:25	-4.8	-4.8	-4.8	90	-6.2	3	5	270	0.0	1008.1	0	0.000	0.0
20100110 05:30	-4.8	-4.8	-4.8	90	-6.2	2	5	270	0.0	1008.1	0	0.000	0.0
20100110 05:35	-4.8	-4.8	-4.8	90	-6.2	3	5	270	0.0	1008.2	0	0.000	0.0
20100110 05:40	-4.8	-4.8	-4.8	90	-6.2	2	3	270	0.0	1008.3	0	0.000	0.0
20100110 05:45	-4.8	-4.8	-4.8	90	-6.2	0	3	270	0.0	1008.3	0	0.000	0.0
20100110 05:50	-4.8	-4.8	-4.8	90	-6.2	2	5	270	0.0	1008.3	0	0.000	0.0
20100110 05:55	-4.8	-4.8	-4.8	90	-6.2	2	5	270	0.0	1008.3	0	0.000	0.0
20100110 06:00	-4.8	-4.8	-4.8	90	-6.2	2	3	270	0.0	1008.4	0	0.000	0.0
20100110 06:05	-4.8	-4.8	-4.8	90	-6.2	3	5	270	0.0	1008.4	0	0.000	0.0
20100110 06:10	-4.8	-4.8	-4.8	90	-6.2	3	5	270	0.0	1008.3	0	0.000	0.0
20100110 06:15	-4.8	-4.8	-4.8	90	-6.2	3	6	270	0.0	1008.4	0	0.000	0.0
20100110 06:20	-4.8	-4.8	-4.8	90	-6.2	3	6	270	0.0	1008.5	0	0.000	0.0
20100110 06:25	-4.8	-4.8	-4.8	90	-6.2	3	6	270	0.0	1008.4	0	0.000	0.0
20100110 06:30	-4.8	-4.8	-4.8	90	-6.2	3	6	270	0.0	1008.5	0	0.000	0.0
20100110 06:35	-4.8	-4.8	-4.8	90	-6.2	3	6	270	0.0	1008.5	0	0.000	0.0
20100110 06:40	-4.8	-4.8	-4.8	90	-6.2	5	6	270	0.0	1008.6	0	0.000	0.0
20100110 06:45	-4.7	-4.7	-4.7	90	-6.1	3	8	270	0.0	1008.6	0	0.000	0.0
20100110 06:50	-4.7	-4.7	-4.7	90	-6.1	5	6	270	0.0	1008.7	0	0.000	0.0
20100110 06:55	-4.7	-4.7	-4.7	90	-6.1	5	8	270	0.0	1008.7	0	0.000	0.0
20100110 07:00	-4.7	-4.7	-4.7	90	-6.1	5	6	270	0.0	1008.9	0	0.000	0.0
20100110 07:05	-4.7	-4.7	-4.7	90	-6.1	5	6	292	0.0	1009.0	0	0.000	0.0
20100110 07:10	-4.7	-4.7	-4.7	90	-6.1	5	6	292	0.0	1009.0	0	0.000	0.0
20100110 07:15	-4.7	-4.7	-4.7	90	-6.1	3	6	292	0.0	1009.1	0	0.000	0.0
20100110 07:20	-4.7	-4.7	-4.7	90	-6.1	3	6	292	0.0	1009.2	0	0.000	0.0
20100110 07:25	-4.7	-4.7	-4.7	90	-6.1	3	6	292	0.0	1009.1	0	0.000	0.0
20100110 07:30	-4.7	-4.7	-4.7	90	-6.1	2	5	292	0.0	1009.2	0	0.000	0.0
20100110 07:35	-4.7	-4.7	-4.7	90	-6.1	3	6	292	0.0	1009.2	0	0.000	0.0
20100110 07:40	-4.7	-4.7	-4.7	90	-6.1	5	10	292	0.0	1009.4	0	0.000	0.0
20100110 07:45	-4.7	-4.7	-4.7	89	-6.2	5	10	292	0.0	1009.5	0	0.000	0.0
20100110 07:50	-4.7	-4.7	-4.7	89	-6.3	5	8	292	0.0	1009.5	0	0.000	0.0
20100110 07:55	-4.7	-4.7	-4.7	89	-6.2	5	8	270	0.0	1009.7	0	0.000	0.0
20100110 08:00	-4.7	-4.7	-4.7	89	-6.3	5	8	292	0.0	1009.8	0	0.000	0.0
20100110 08:05	-4.7	-4.7	-4.7	89	-6.2	3	6	292	0.0	1009.8	0	0.000	0.0
20100110 08:10	-4.7	-4.7	-4.7	89	-6.2	5	6	292	0.0	1009.8	0	0.000	0.0
20100110 08:15	-4.7	-4.7	-4.7	89	-6.3	5	8	292	0.0	1009.9	0	0.000	0.0
20100110 08:20	-4.7	-4.7	-4.7	89	-6.2	5	8	270	0.0	1009.9	0	0.000	0.0
20100110 08:25	-4.7	-4.7	-4.7	89	-6.2	3	8	292	0.0	1010.0	0	0.000	0.0
20100110 08:30	-4.7	-4.7	-4.7	89	-6.2	3	6	248	0.0	1010.1	0	0.000	0.0
20100110 08:35	-4.7	-4.7	-4.7	89	-6.2	5	8	292	0.0	1010.1	0	0.000	0.0
20100110 08:40	-4.6	-4.6	-4.6	89	-6.1	3	8	225	0.0	1010.3	3	0.000	0.0
20100110 08:45	-4.6	-4.6	-4.6	89	-6.1	5	10	270	0.0	1010.3	5	0.000	0.0
20100110 08:50	-4.6	-4.6	-4.6	89	-6.1	5	6	270	0.0	1010.2	6	0.000	0.0
20100110 08:55	-4.6	-4.6	-4.6	89	-6.1	5	8	270	0.0	1010.4	7	0.000	0.0
20100110 09:00	-4.6	-4.6	-4.6	89	-6.1	5	8	270	0.0	1010.5	7	0.000	0.0
20100110 09:05	-4.6	-4.6	-4.6	89	-6.1	5	8	248	0.0	1010.6	8	0.000	0.0
20100110 09:10	-4.6	-4.6	-4.6	89	-6.1	5	10	248	0.0	1010.6	9	0.000	0.0
20100110 09:15	-4.6	-4.6	-4.6	89	-6.1	5	10	248	0.0	1010.6	12	0.000	0.0
20100110 09:20	-4.5	-7.4	-4.5	89	-6.0	6	10	270	0.0	1010.7	15	0.000	0.0
20100110 09:25	-4.5	-7.4	-4.5	89	-6.0	6	10	248	0.0	1010.8	16	0.000	0.0
20100110 09:30	-4.5	-4.5	-4.5	89	-6.0	5	8	270	0.0	1010.7	16	0.000	0.0
20100110 09:35	-4.4	-7.3	-4.4	89	-6.0	6	8	270	0.0	1010.8	17	0.000	0.0
20100110 09:40	-4.4	-7.3	-4.4	89	-6.0	6	10	270	0.0	1010.8	18	0.000	0.0
20100110 09:45	-4.4	-4.4	-4.4	89	-6.0	5	8	248	0.0	1010.9	19	0.000	0.0
20100110 09:50	-4.4	-7.2	-4.4	89	-5.9	6	11	270	0.0	1010.9	20	0.000	0.0
20100110 09:55	-4.3	-7.2	-4.3	89	-5.9	6	10	270	0.0	1011.1	21	0.000	0.0
20100110 10:00	-4.3	-4.3	-4.3	89	-5.9	5	8	248	0.0	1011.1	21	0.000	0.0
20100110 10:05	-4.3	-4.3	-4.3	89	-5.9	5	10	292	0.0	1011.2	21	0.000	0.0
20100110 10:10	-4.3	-7.1	-4.3	89	-5.8	6	10	292	0.0	1011.3	22	0.000	0.0
20100110 10:15	-4.3	-7.1	-4.3	88	-6.0	6	8	270	0.0	1011.4	23	0.000	0.0
20100110 10:20	-4.3	-7.1	-4.3	88	-6.0	6	10	292	0.0	1011.4	22	0.000	0.0
20100110 10:25	-4.3	-4.3	-4.3	88	-6.0	5	8	292	0.0	1011.4	25	0.000	0.0
20100110 10:30	-4.2	-4.2	-4.2	88	-5.9	5	8	292	0.0	1011.4	29	0.000	0.0
20100110 10:35	-4.2	-4.2	-4.2	88	-5.9	5	8	292	0.0	1011.4	32	0.000	0.0
20100110 10:40	-4.2	-4.2	-4.2	88	-5.9	5	8	270	0.0	1011.4	32	0.000	0.0
20100110 10:45	-4.2	-4.2	-4.2	88	-5.9	5	8	270	0.0	1011.7	32	0.000	0.0
20100110 10:50	-4.2	-7.0	-4.2	88	-5.9	6	8	270	0.0	1011.7	34	0.000	0.0
20100110 10:55	-4.2	-7.0	-4.2	88	-5.9	6	14	270	0.0	1011.7	35	0.000	0.0
20100110 11:00	-4.2	-7.0	-4.2	88	-5.9	6	11	270	0.0	1011.7	35	0.000	0.0
20100110 11:05	-4.2	-4.2	-4.2	88	-5.9	5	8	270	0.0	1011.8	34	0.000	0.0
20100110 11:10	-4.1	-4.1	-4.1	88	-5.7	5	10	270	0.0	1011.8	35	0.000	0.0
20100110 11:15	-4.1	-6.9	-4.1	88	-5.7	6	10	292	0.0	1011.8	33	0.000	0.0
20100110 11:20	-4.1	-6.9	-4.1	87	-5.9	6	10	270	0.0	1012.0	32	0.000	0.0
20100110 11:25	-4.1	-4.1	-4.1	87	-5.9	5	8	292	0.0	1012.1	32	0.000	0.0
20100110 11:30	-4.1	-7.6	-4.1	87	-5.9	8	11	270	0.0	1012.1	32	0.000	0.0
20100110 11:35	-4.1	-6.9	-4.1	87	-5.9	6	10	270	0.0	1012.1	28	0.000	0.0
20100110 11:40	-4.1	-4.1	-4.1	87	-5.9	5	10	270	0.0	1012.2	26	0.000	0.0
20100110 11:45	-4.1	-4.1	-4.1	87	-5.9	5	8	270	0.0	1012.2	28	0.000	0.0
20100110 11:50	-4.1	-4.1	-4.1	88	-5.7	5	6	270	0.0	1012.2	33	0.000	0.0
20100110 11:55	-4.1	-4.1	-4.1	88	-5.7	5	8	292	0.0	1012.2	38	0.000	0.0
20100110 12:00	-4.0	-4.0	-4.0	88	-5.7	5	10	292	0.0	1012.3	49	0.025	0.0
20100110 12:05	-3.9	-3.9	-3.9	88	-5.6	5	10	248	0.0	1012.3	57	0.000	0.0
20100110 12:10	-3.9	-6.7	-3.9	87	-5.7	6	10	270	0.0	1012.3	62	0.000	0.0
20100110 12:15	-3.9	-7.3	-3.9	87	-5.7	8	11	270	0.0	1012.3	68	0.000	0.0
20100110 12:20	-3.9	-6.7	-3.9	87	-5.7	6	10	270	0.0	1012.3	74	0.000	0.0
20100110 12:25	-3.8	-6.6	-3.8	87	-5.7	6	8	270	0.0	1012.3	74	0.000	0.0
20100110 12:30	-3.8	-6.5	-3.8	87	-5.6	6	11	270	0.0	1012.3	70	0.000	0.0
20100110 12:35	-3.7	-6.5	-3.7	87	-5.6	6	10	248	0.0	1012.4	67	0.000	0.0
20100110 12:40	-3.7	-3.7	-3.7	87	-5.5	5	8	270	0.0	1012.4	61	0.000	0.0
20100110 12:45	-3.7	-6.4	-3.7	86	-5.7	6	11	292	0.0	1012.4	56	0.000	0.0
20100110 12:50	-3.7	-7.1	-3.7	86	-5.7	8	13	292	0.0	1012.3	52	0.000	0.0
20100110 12:55	-3.8	-7.2	-3.8	85	-5.9	8	14	270	0.0	1012.3	48	0.000	0.0
20100110 13:00	-3.8	-7.8	-3.8	86	-5.8	10	16	270	0.0	1012.3	45	0.025	0.0
20100110 13:05	-3.9	-7.3	-3.9	86	-5.9	8	16	270	0.0	1012.3	43	0.000	0.0
20100110 13:10	-3.9	-6.7	-3.9	86	-5.9	6	10	292	0.0	1012.3	42	0.000	0.0
20100110 13:15	-3.9	-7.4	-3.9	86	-5.9	8	13	270	0.0	1012.3	41	0.000	0.0
20100110 13:20	-3.9	-7.9	-3.9	85	-6.1	10	14	292	0.0	1012.3	41	0.000	0.0
20100110 13:25	-4.0	-7.4	-4.0	85	-6.1	8	14	292	0.0	1012.3	39	0.000	0.0
20100110 13:30	-4.0	-6.8	-4.0	85	-6.1	6	10	270	0.0	1012.4	35	0.000	0.0
20100110 13:35	-3.9	-6.7	-3.9	85	-6.1	6	10	270	0.0	1012.5	32	0.000	0.0
20100110 13:40	-3.9	-6.7	-3.9	85	-6.1	6	10	270	0.0	1012.4	32	0.000	0.0
20100110 13:45	-4.0	-7.4	-4.0	85	-6.1	8	11	270	0.0	1012.4	29	0.000	0.0
20100110 13:50	-4.0	-6.8	-4.0	85	-6.1	6	10	292	0.0	1012.4	29	0.000	0.0
20100110 13:55	-3.9	-6.7	-3.9	85	-6.1	6	10	292	0.0	1012.4	29	0.000	0.0
20100110 14:00	-3.9	-3.9	-3.9	85	-6.1	5	8	292	0.0	1012.5	28	0.025	0.0
20100110 14:05	-3.9	-3.9	-3.9	86	-5.9	5	8	292	0.0	1012.6	29	0.000	0.0
20100110 14:10	-3.9	-6.7	-3.9	85	-6.0	6	11	292	0.0	1012.6	32	0.000	0.0
20100110 14:15	-3.9	-7.3	-3.9	85	-6.0	8	11	292	0.0	1012.6	35	0.000	0.0
20100110 14:20	-3.9	-6.7	-3.9	85	-6.0	6	11	270	0.0	1012.6	43	0.000	0.0
20100110 14:25	-3.9	-6.7	-3.9	85	-6.0	6	10	270	0.0	1012.7	46	0.000	0.0
20100110 14:30	-3.8	-3.8	-3.8	85	-6.0	5	8	270	0.0	1012.8	43	0.000	0.0
20100110 14:35	-3.8	-3.8	-3.8	85	-6.0	5	8	270	0.0	1012.9	42	0.000	0.0
20100110 14:40	-3.8	-3.8	-3.8	85	-5.9	5	8	248	0.0	1012.8	40	0.000	0.0
20100110 14:45	-3.8	-3.8	-3.8	85	-5.9	5	8	270	0.0	1012.9	36	0.000	0.0
20100110 14:50	-3.7	-3.7	-3.7	85	-5.9	3	6	270	0.0	1012.9	28	0.000	0.0
20100110 14:55	-3.7	-3.7	-3.7	85	-5.9	5	8	248	0.0	1013.0	25	0.000	0.0
20100110 15:00	-3.8	-3.8	-3.8	85	-5.9	5	8	270	0.0	1013.0	22	0.025	0.0
20100110 15:05	-3.8	-3.8	-3.8	86	-5.8	5	8	270	0.0	1013.0	19	0.000	0.0
20100110 15:10	-3.8	-3.8	-3.8	86	-5.8	5	8	292	0.0	1013.0	16	0.000	0.0
20100110 15:15	-3.8	-6.6	-3.8	86	-5.8	6	10	292	0.0	1013.0	12	0.000	0.0
20100110 15:20	-3.8	-3.8	-3.8	86	-5.8	5	10	270	0.0	1013.0	12	0.000	0.0
20100110 15:25	-3.9	-6.7	-3.9	86	-5.9	6	10	292	0.0	1013.0	14	0.000	0.0
20100110 15:30	-3.9	-3.9	-3.9	86	-5.9	5	8	270	0.0	1013.0	14	0.000	0.0
20100110 15:35	-3.9	-3.9	-3.9	86	-5.9	5	8	292	0.0	1013.0	15	0.000	0.0
20100110 15:40	-3.9	-6.7	-3.9	86	-5.9	6	10	292	0.0	1013.0	13	0.000	0.0
20100110 15:45	-3.9	-3.9	-3.9	87	-5.7	5	6	292	0.0	1013.0	12	0.000	0.0
20100110 15:50	-3.9	-3.9	-3.9	87	-5.7	5	8	292	0.0	1013.0	11	0.000	0.0
20100110 15:55	-3.9	-3.9	-3.9	86	-5.9	5	10	270	0.0	1013.0	9	0.000	0.0
20100110 16:00	-3.9	-3.9	-3.9	86	-5.9	5	10	270	0.0	1013.0	9	0.000	0.0
20100110 16:05	-3.9	-6.7	-3.9	86	-5.9	6	10	270	0.0	1013.0	7	0.000	0.0
20100110 16:10	-3.9	-3.9	-3.9	86	-5.9	5	10	270	0.0	1013.0	6	0.000	0.0
20100110 16:15	-3.9	-6.7	-3.9	86	-5.9	6	10	292	0.0	1013.0	5	0.000	0.0
20100110 16:20	-3.9	-3.9	-3.9	86	-5.9	5	10	248	0.0	1013.0	3	0.000	0.0
20100110 16:25	-4.0	-6.8	-4.0	86	-6.0	6	11	270	0.0	1013.0	0	0.000	0.0
20100110 16:30	-4.0	-6.8	-4.0	86	-6.0	6	11	270	0.0	1013.0	0	0.000	0.0
20100110 16:35	-4.1	-6.9	-4.1	85	-6.2	6	11	270	0.0	671.5	0	0.000	0.0
20100110 16:40	-4.1	-6.9	-4.1	86	-6.0	6	11	270	0.0	671.5	0	0.000	0.0
20100110 16:45	-4.1	-4.1	-4.1	86	-6.0	5	10	270	0.0	671.5	0	0.000	0.0
20100110 16:50	-4.1	-4.1	-4.1	86	-6.1	5	10	270	0.0	671.5	0	0.000	0.0
20100110 16:55	-4.1	-4.1	-4.1	86	-6.1	5	10	270	0.0	671.5	0	0.000	0.0
20100110 17:00	-4.1	-4.1	-4.1	86	-6.1	5	8	270	0.0	671.5	0	0.000	0.0
20100110 17:05	-4.1	-6.9	-4.1	86	-6.1	6	11	270	0.0	671.5	0	0.000	0.0
20100110 17:10	-4.1	-4.1	-4.1	86	-6.1	5	10	270	0.0	671.5	0	0.000	0.0
20100110 17:15	-4.2	-7.0	-4.2	86	-6.2	6	10	270	0.0	671.5	0	0.000	0.0
20100110 17:20	-4.2	-4.2	-4.2	86	-6.2	5	11	270	0.0	1014.1	0	0.000	0.0
20100110 17:25	-4.2	-4.2	-4.2	86	-6.2	5	10	270	0.0	1014.1	0	0.000	0.0
20100110 17:30	-4.2	-7.0	-4.2	85	-6.3	6	11	292	0.0	1014.1	0	0.000	0.0
20100110 17:35	-4.2	-7.0	-4.2	85	-6.3	6	11	270	0.0	1014.1	0	0.000	0.0
20100110 17:40	-4.2	-7.0	-4.2	85	-6.3	6	11	292	0.0	1014.1	0	0.000	0.0
20100110 17:45	-4.2	-7.0	-4.2	85	-6.3	6	10	292	0.0	1014.1	0	0.000	0.0
20100110 17:50	-4.2	-7.6	-4.2	85	-6.3	8	18	292	0.0	1014.1	0	0.000	0.0
20100110 17:55	-4.2	-4.2	-4.2	86	-6.2	5	8	292	0.0	1014.1	0	0.000	0.0
20100110 18:00	-4.2	-4.2	-4.2	86	-6.2	5	8	292	0.0	1014.1	0	0.000	0.0
20100110 18:05	-4.2	-4.2	-4.2	87	-6.1	5	8	292	0.0	1014.1	0	0.000	0.0
20100110 18:10	-4.2	-4.2	-4.2	87	-6.1	5	11	292	0.0	1014.1	0	0.000	0.0
20100110 18:15	-4.3	-4.3	-4.3	87	-6.1	3	6	292	0.0	1014.1	0	0.000	0.0
20100110 18:20	-4.3	-4.3	-4.3	87	-6.1	5	8	292	0.0	1014.1	0	0.000	0.0
20100110 18:25	-4.3	-4.3	-4.3	88	-6.0	5	6	270	0.0	1014.1	0	0.000	0.0
20100110 18:30	-4.3	-7.1	-4.3	87	-6.1	6	10	270	0.0	1014.1	0	0.000	0.0
20100110 18:35	-4.3	-7.2	-4.3	88	-6.0	6	10	270	0.0	1014.1	0	0.000	0.0
20100110 18:40	-4.3	-7.2	-4.3	88	-6.0	6	11	270	0.0	1014.1	0	0.000	0.0
20100110 18:45	-4.3	-7.2	-4.3	88	-6.0	6	11	270	0.0	1014.1	0	0.000	0.0
20100110 18:50	-4.3	-7.2	-4.3	88	-6.0	6	10	292	0.0	1014.1	0	0.000	0.0
20100110 18:55	-4.4	-7.2	-4.4	88	-6.1	6	11	292	0.0	1014.1	0	0.000	0.0
20100110 19:00	-4.4	-4.4	-4.4	88	-6.1	5	8	270	0.0	1014.1	0	0.000	0.0
20100110 19:05	-4.4	-7.2	-4.4	88	-6.1	6	11	292	0.0	1014.1	0	0.000	0.0
20100110 19:10	-4.4	-4.4	-4.4	88	-6.1	5	8	292	0.0	1014.1	0	0.000	0.0
20100110 19:15	-4.4	-4.4	-4.4	88	-6.1	5	11	270	0.0	1014.1	0	0.000	0.0
20100110 19:20	-4.4	-4.4	-4.4	88	-6.1	5	8	270	0.0	1014.1	0	0.000	0.0
20100110 19:25	-4.4	-7.2	-4.4	88	-6.1	6	8	292	0.0	1014.1	0	0.000	0.0
20100110 19:30	-4.4	-7.2	-4.4	88	-6.1	6	8	270	0.0	1015.0	0	0.000	0.0
20100110 19:35	-4.4	-7.2	-4.4	88	-6.1	6	10	292	0.0	1015.0	0	0.000	0.0
20100110 19:40	-4.4	-4.4	-4.4	88	-6.1	5	8	270	0.0	877.0	0	0.000	0.0
20100110 19:45	-4.4	-7.2	-4.4	88	-6.1	6	10	270	0.0	877.0	0	0.000	0.0
20100110 19:50	-4.4	-4.4	-4.4	88	-6.1	5	8	270	0.0	877.0	0	0.000	0.0
20100110 19:55	-4.4	-4.4	-4.4	88	-6.1	5	8	292	0.0	877.0	0	0.000	0.0
20100110 20:00	-4.3	-4.3	-4.3	88	-6.0	5	8	270	0.0	1015.0	0	0.000	0.0
20100110 20:05	-4.3	-4.3	-4.3	88	-6.0	5	10	270	0.0	1015.0	0	0.000	0.0
20100110 20:10	-4.3	-4.3	-4.3	88	-6.0	5	8	292	0.0	1015.0	0	0.000	0.0
20100110 20:15	-4.3	-7.2	-4.3	88	-6.0	6	10	270	0.0	1015.0	0	0.000	0.0
20100110 20:20	-4.3	-7.2	-4.3	87	-6.2	6	10	270	0.0	786.8	0	0.000	0.0
20100110 20:25	-4.3	-4.3	-4.3	88	-6.0	5	11	292	0.0	1015.2	0	0.000	0.0
20100110 20:30	-4.3	-4.3	-4.3	88	-6.0	5	8	292	0.0	1015.3	0	0.000	0.0
20100110 20:35	-4.3	-4.3	-4.3	88	-6.0	5	10	270	0.0	1015.4	0	0.000	0.0
20100110 20:40	-4.3	-7.2	-4.3	87	-6.2	6	14	292	0.0	1015.4	0	0.000	0.0
20100110 20:45	-4.3	-7.2	-4.3	87	-6.2	6	11	270	0.0	1015.4	0	0.000	0.0
20100110 20:50	-4.3	-7.2	-4.3	87	-6.2	6	11	270	0.0	1015.4	0	0.000	0.0
20100110 20:55	-4.3	-4.3	-4.3	88	-6.0	5	8	270	0.0	1015.4	0	0.000	0.0
20100110 21:00	-4.3	-7.2	-4.3	88	-6.0	6	11	292	0.0	1015.4	0	0.000	0.0
20100110 21:05	-4.3	-7.2	-4.3	87	-6.2	6	11	270	0.0	787.3	0	0.000	0.0
20100110 21:10	-4.3	-7.2	-4.3	87	-6.2	6	11	270	0.0	787.3	0	0.000	0.0
20100110 21:15	-4.3	-7.2	-4.3	87	-6.2	6	11	270	0.0	1015.6	0	0.000	0.0
20100110 21:20	-4.4	-7.9	-4.4	87	-6.2	8	11	270	0.0	1015.6	0	0.000	0.0
20100110 21:25	-4.4	-4.4	-4.4	87	-6.2	5	10	270	0.0	1015.6	0	0.000	0.0
20100110 21:30	-4.3	-7.2	-4.3	87	-6.2	6	11	270	0.0	1015.6	0	0.000	0.0
20100110 21:35	-4.3	-4.3	-4.3	88	-6.0	5	8	270	0.0	1015.6	0	0.000	0.0
20100110 21:40	-4.3	-7.2	-4.3	88	-6.0	6	11	270	0.0	1015.6	0	0.000	0.0
20100110 21:45	-4.3	-7.2	-4.3	88	-6.0	6	10	270	0.0	1015.6	0	0.000	0.0
20100110 21:50	-4.3	-7.2	-4.3	88	-6.0	6	11	248	0.0	1015.6	0	0.000	0.0
20100110 21:55	-4.3	-7.2	-4.3	88	-6.0	6	10	270	0.0	787.9	0	0.000	0.0
20100110 22:00	-4.4	-7.2	-4.4	88	-6.1	6	11	248	0.0	787.9	0	0.000	0.0
20100110 22:05	-4.4	-7.2	-4.4	88	-6.1	6	14	270	0.0	787.9	0	0.000	0.0
20100110 22:10	-4.4	-7.2	-4.4	88	-6.1	6	11	270	0.0	1015.7	0	0.000	0.0
20100110 22:15	-4.4	-7.9	-4.4	88	-6.1	8	14	270	0.0	1015.8	0	0.000	0.0
20100110 22:20	-4.4	-7.9	-4.4	87	-6.2	8	19	270	0.0	1015.8	0	0.000	0.0
20100110 22:25	-4.4	-7.9	-4.4	87	-6.2	8	13	270	0.0	1015.9	0	0.000	0.0
20100110 22:30	-4.4	-7.9	-4.4	87	-6.2	8	16	248	0.0	1015.8	0	0.000	0.0
20100110 22:35	-4.4	-7.9	-4.4	87	-6.2	8	18	270	0.0	1015.8	0	0.000	0.0
20100110 22:40	-4.4	-7.9	-4.4	87	-6.2	8	18	270	0.0	1015.8	0	0.000	0.0
20100110 22:45	-4.4	-7.3	-4.4	87	-6.3	6	13	270	0.0	1015.8	0	0.000	0.0
20100110 22:50	-4.4	-7.3	-4.4	88	-6.1	6	10	270	0.0	1015.9	0	0.000	0.0
20100110 22:55	-4.4	-7.3	-4.4	88	-6.1	6	10	270	0.0	1015.9	0	0.000	0.0
20100110 23:00	-4.4	-4.4	-4.4	88	-6.1	5	10	248	0.0	1015.9	0	0.000	0.0
20100110 23:05	-4.4	-7.3	-4.4	88	-6.1	6	10	292	0.0	788.9	0	0.000	0.0
20100110 23:10	-4.5	-7.4	-4.5	88	-6.2	6	11	292	0.0	1015.9	0	0.000	0.0
20100110 23:15	-4.5	-7.4	-4.5	88	-6.2	6	10	292	0.0	1015.9	0	0.000	0.0
20100110 23:20	-4.5	-7.4	-4.5	88	-6.2	6	10	292	0.0	1015.9	0	0.000	0.0
20100110 23:25	-4.5	-7.4	-4.5	88	-6.2	6	10	292	0.0	1015.9	0	0.000	0.0
20100110 23:30	-4.5	-7.4	-4.5	88	-6.2	6	11	270	0.0	1015.9	0	0.000	0.0
20100110 23:35	-4.5	-7.4	-4.5	88	-6.2	6	13	292	0.0	1015.9	0	0.000	0.0
20100110 23:40	-4.6	-7.4	-4.6	88	-6.2	6	10	270	0.0	1015.9	0	0.000	0.0
20100110 23:45	-4.6	-4.6	-4.6	88	-6.2	5	8	270	0.0	1015.9	0	0.000	0.0
20100110 23:50	-4.5	-4.5	-4.5	88	-6.2	3	6	270	0.0	1015.9	0	0.000	0.0
20100110 23:55	-4.5	-4.5	-4.5	88	-6.2	5	10	270	0.0	1015.9	0	0.000	0.0



Please note the license to use and transfer of this data:
http://creativecommons.org/licenses/by-nc-sa/3.0/deed.en

Bitte beachten sie die Lizenz zur Verwertung und Weitergabe der Daten:
http://creativecommons.org/licenses/by-nc-sa/3.0/deed.de

zurück zur Übersicht der Archivdaten (Monats und Tagesdaten)

Cookies helfen bei der Bereitstellung von Inhalten. Durch die Nutzung dieser Seiten erklärst du dich damit einverstanden, dass Cookies auf deinem Rechner gespeichert werden. Weitere Information